Time;durP1;ratioP1;P1;durP2;ratioP2;P2;SDS_P1;SDS_P2;PMS_P1;PMS_P2;Temp;Humidity;BMP_temperature;BMP_pressure;BME280_temperature;BME280_humidity;BME280_pressure;Samples;Min_cycle;Max_cycle;Signal;HPM_P1;HPM_P2
2022/04/26 03:37:06;;;;;;;0.40;0.30;;;9.30;99.90;;;;;;5009513;28;20418;-68
2022/04/26 03:39:33;;;;;;;0.40;0.30;;;9.30;99.90;;;;;;4979396;28;839952;-68
2022/04/26 03:41:59;;;;;;;0.40;0.20;;;9.20;99.90;;;;;;5006191;28;20460;-68
2022/04/26 03:44:25;;;;;;;0.40;0.20;;;9.20;99.90;;;;;;4996209;28;20397;-68
2022/04/26 03:46:50;;;;;;;0.40;0.20;;;9.30;99.90;;;;;;5009566;28;20413;-67
2022/04/26 03:49:16;;;;;;;0.40;0.20;;;9.30;99.90;;;;;;5010716;28;20397;-68
2022/04/26 03:51:42;;;;;;;0.40;0.30;;;9.30;99.90;;;;;;5009848;28;20455;-68
2022/04/26 03:54:08;;;;;;;0.40;0.20;;;9.40;99.90;;;;;;5010872;28;20854;-68
2022/04/26 03:56:33;;;;;;;0.40;0.20;;;9.40;99.90;;;;;;5010267;28;20397;-68
2022/04/26 03:58:59;;;;;;;0.40;0.20;;;9.40;99.90;;;;;;5010250;28;20813;-68
2022/04/26 04:01:25;;;;;;;0.40;0.20;;;9.30;99.90;;;;;;5010535;28;20380;-68
2022/04/26 04:03:50;;;;;;;0.40;0.20;;;9.40;99.90;;;;;;5009202;28;20393;-68
2022/04/26 04:06:16;;;;;;;0.40;0.20;;;9.30;99.90;;;;;;5009923;28;20825;-68
2022/04/26 04:08:42;;;;;;;1.70;0.70;;;9.30;99.90;;;;;;5010748;28;20472;-68
2022/04/26 04:11:07;;;;;;;0.40;0.20;;;9.30;99.90;;;;;;5013543;28;20402;-68
2022/04/26 04:13:33;;;;;;;0.70;0.70;;;9.30;99.90;;;;;;4989800;28;20394;-68
2022/04/26 04:16:02;;;;;;;0.40;0.20;;;9.30;99.90;;;;;;5004365;28;20875;-68
2022/04/26 04:21:12;;;;;;;0.40;0.20;;;9.20;99.90;;;;;;5009260;28;20404;-68
2022/04/26 04:23:38;;;;;;;0.40;0.20;;;9.20;99.90;;;;;;5010097;28;20757;-68
2022/04/26 04:26:04;;;;;;;0.40;0.20;;;9.20;99.90;;;;;;5009723;28;20400;-68
2022/04/26 04:28:32;;;;;;;0.40;0.22;;;9.20;99.90;;;;;;5009710;28;20397;-68
2022/04/26 04:30:59;;;;;;;0.40;0.20;;;9.30;99.90;;;;;;5011325;28;20432;-68
2022/04/26 04:33:24;;;;;;;0.40;0.20;;;9.30;99.90;;;;;;5025501;28;20404;-68
2022/04/26 04:35:50;;;;;;;0.40;0.20;;;9.40;99.90;;;;;;5010434;28;20734;-68
2022/04/26 04:38:16;;;;;;;0.40;0.30;;;9.30;99.90;;;;;;5011742;28;20495;-68
2022/04/26 04:40:42;;;;;;;0.40;0.20;;;9.20;99.90;;;;;;5021854;28;20426;-68
2022/04/26 04:43:10;;;;;;;0.40;0.20;;;9.20;99.90;;;;;;5001223;28;20447;-68
2022/04/26 04:45:36;;;;;;;0.40;0.20;;;9.30;99.90;;;;;;5012829;28;20392;-68
2022/04/26 04:48:01;;;;;;;0.40;0.20;;;9.30;99.90;;;;;;5013236;28;20417;-68
2022/04/26 04:50:27;;;;;;;0.40;0.20;;;9.20;99.90;;;;;;5012580;28;20396;-69
2022/04/26 04:52:53;;;;;;;0.40;0.20;;;9.30;99.90;;;;;;5013433;28;20424;-68
2022/04/26 04:55:18;;;;;;;0.40;0.20;;;9.30;99.90;;;;;;5013742;28;20407;-68
2022/04/26 04:57:44;;;;;;;0.40;0.20;;;9.30;99.90;;;;;;5012278;28;20428;-68
2022/04/26 05:00:10;;;;;;;0.40;0.20;;;9.20;99.90;;;;;;5013714;28;20413;-68
2022/04/26 05:02:36;;;;;;;0.40;0.20;;;9.20;99.90;;;;;;5012081;28;20488;-69
2022/04/26 05:05:02;;;;;;;0.43;0.40;;;9.20;99.90;;;;;;5013363;28;20460;-68
2022/04/26 05:07:28;;;;;;;0.40;0.20;;;9.20;99.90;;;;;;5012604;28;20429;-68
2022/04/26 05:09:54;;;;;;;0.40;0.20;;;9.30;99.90;;;;;;5011950;28;20440;-68
2022/04/26 05:12:20;;;;;;;0.70;0.60;;;9.20;99.90;;;;;;5012936;28;20429;-69
2022/04/26 05:14:46;;;;;;;0.40;0.20;;;9.30;99.90;;;;;;5011909;28;20416;-69
2022/04/26 05:17:11;;;;;;;0.40;0.30;;;9.20;99.90;;;;;;5012928;28;20459;-69
2022/04/26 05:19:38;;;;;;;0.40;0.20;;;9.20;99.90;;;;;;5028061;28;20435;-68
2022/04/26 05:22:08;;;;;;;0.40;0.20;;;9.30;99.90;;;;;;5011906;28;20468;-67
2022/04/26 05:27:34;;;;;;;0.93;0.65;;;9.40;99.90;;;;;;5012536;28;20428;-67
2022/04/26 05:30:00;;;;;;;0.40;0.20;;;9.40;99.90;;;;;;5011922;28;20411;-67
2022/04/26 05:32:27;;;;;;;0.40;0.20;;;9.40;99.90;;;;;;5016652;28;20396;-67
2022/04/26 05:35:03;;;;;;;0.40;0.20;;;9.40;99.90;;;;;;5012093;28;20781;-68
2022/04/26 05:37:31;;;;;;;0.73;0.52;;;9.50;99.90;;;;;;5012714;28;20448;-67
2022/04/26 05:39:57;;;;;;;0.40;0.30;;;9.50;99.90;;;;;;5011803;28;20452;-67
2022/04/26 05:42:23;;;;;;;0.40;0.20;;;9.60;99.90;;;;;;5011721;28;20409;-67
2022/04/26 05:44:49;;;;;;;0.40;0.40;;;9.50;99.90;;;;;;5012100;28;20423;-67
2022/04/26 05:47:15;;;;;;;0.40;0.20;;;9.70;99.90;;;;;;5011510;28;20413;-68
2022/04/26 05:49:41;;;;;;;0.40;0.20;;;9.60;99.90;;;;;;5011434;28;20484;-68
2022/04/26 05:52:06;;;;;;;0.40;0.20;;;9.70;99.90;;;;;;5011316;28;20385;-67
2022/04/26 05:54:32;;;;;;;0.40;0.20;;;9.50;99.90;;;;;;5012784;28;20427;-68
2022/04/26 05:56:58;;;;;;;0.40;0.20;;;9.50;99.90;;;;;;5012317;28;20424;-68
2022/04/26 05:59:25;;;;;;;0.40;0.20;;;9.50;99.90;;;;;;5011236;28;20397;-68
2022/04/26 06:01:51;;;;;;;0.40;0.20;;;9.50;99.90;;;;;;5011897;28;20397;-68
2022/04/26 06:04:18;;;;;;;0.40;0.22;;;9.60;99.90;;;;;;5011692;28;20392;-68
2022/04/26 06:06:44;;;;;;;0.40;0.20;;;9.60;99.90;;;;;;5011073;28;20897;-68
2022/04/26 06:09:13;;;;;;;0.40;0.20;;;9.60;99.90;;;;;;5012417;28;20428;-68
2022/04/26 06:11:39;;;;;;;0.40;0.20;;;9.60;99.90;;;;;;5012066;28;20385;-68
2022/04/26 06:14:05;;;;;;;0.40;0.20;;;9.60;99.90;;;;;;5011302;28;20745;-68
2022/04/26 06:16:31;;;;;;;0.40;0.20;;;9.60;99.90;;;;;;5010680;28;20488;-68
2022/04/26 06:18:57;;;;;;;0.40;0.20;;;9.70;99.90;;;;;;5011994;28;20447;-68
2022/04/26 06:21:22;;;;;;;0.47;0.47;;;9.80;99.90;;;;;;5009422;28;20408;-68
2022/04/26 06:23:48;;;;;;;0.70;0.65;;;9.70;99.90;;;;;;5012822;28;20400;-68
2022/04/26 06:26:14;;;;;;;0.40;0.20;;;9.80;99.90;;;;;;5031624;28;20382;-68
2022/04/26 06:28:40;;;;;;;0.40;0.20;;;9.80;99.90;;;;;;5022211;28;20387;-67
2022/04/26 06:31:05;;;;;;;0.40;0.20;;;9.80;99.90;;;;;;5016165;28;20387;-67
2022/04/26 06:33:33;;;;;;;0.40;0.20;;;9.90;99.90;;;;;;5010038;28;20401;-68
2022/04/26 06:35:59;;;;;;;0.40;0.20;;;10.10;99.90;;;;;;5014539;28;20414;-68
2022/04/26 06:38:25;;;;;;;0.40;0.20;;;10.00;99.90;;;;;;5011200;28;20392;-68
2022/04/26 06:40:52;;;;;;;0.40;0.20;;;10.00;99.90;;;;;;5024034;28;20406;-68
2022/04/26 06:43:18;;;;;;;0.40;0.20;;;10.10;99.90;;;;;;5022147;28;20746;-69
2022/04/26 06:45:46;;;;;;;0.40;0.20;;;10.10;99.90;;;;;;5024762;28;20396;-68
2022/04/26 06:48:12;;;;;;;0.40;0.20;;;10.10;99.90;;;;;;5011266;28;20463;-67
2022/04/26 06:50:38;;;;;;;0.40;0.20;;;10.10;99.90;;;;;;5010376;28;20920;-68
2022/04/26 06:53:04;;;;;;;0.40;0.27;;;10.10;99.90;;;;;;5011526;28;20385;-68
2022/04/26 06:55:31;;;;;;;0.40;0.20;;;10.30;99.90;;;;;;5010550;28;20439;-68
2022/04/26 06:57:57;;;;;;;0.40;0.20;;;10.40;99.90;;;;;;5010277;28;20885;-69
2022/04/26 07:00:23;;;;;;;0.40;0.20;;;10.60;99.90;;;;;;5023432;28;20381;-69
2022/04/26 07:02:49;;;;;;;0.40;0.20;;;10.70;99.90;;;;;;5009665;28;20396;-68
2022/04/26 07:05:15;;;;;;;0.40;0.30;;;10.60;99.90;;;;;;5022097;28;20396;-68
2022/04/26 07:07:42;;;;;;;0.40;0.20;;;10.60;99.90;;;;;;5011149;28;20428;-68
2022/04/26 07:10:08;;;;;;;0.40;0.20;;;10.50;99.90;;;;;;5026540;28;20878;-68
2022/04/26 07:12:35;;;;;;;0.40;0.20;;;10.30;99.90;;;;;;5028788;28;20384;-68
2022/04/26 07:15:01;;;;;;;0.40;0.20;;;10.30;99.90;;;;;;5009644;28;20399;-68
2022/04/26 07:17:29;;;;;;;0.40;0.20;;;10.30;99.90;;;;;;5009922;28;20424;-68
2022/04/26 07:19:57;;;;;;;0.40;0.30;;;10.40;99.90;;;;;;5014272;28;20406;-69
2022/04/26 07:22:23;;;;;;;0.40;0.20;;;10.60;99.90;;;;;;5018470;28;20900;-69
2022/04/26 07:24:49;;;;;;;0.40;0.20;;;10.70;99.90;;;;;;5009774;28;20408;-68
2022/04/26 07:27:16;;;;;;;0.40;0.20;;;10.70;99.90;;;;;;5009244;28;20455;-68
2022/04/26 07:29:43;;;;;;;0.40;0.20;;;10.50;99.90;;;;;;5011018;28;20385;-67
2022/04/26 07:32:10;;;;;;;0.40;0.20;;;10.70;99.90;;;;;;5016596;28;20483;-68
2022/04/26 07:34:36;;;;;;;0.40;0.20;;;10.80;99.90;;;;;;5011080;28;20384;-68
2022/04/26 07:37:02;;;;;;;0.40;0.20;;;10.90;99.90;;;;;;5010142;28;20486;-68
2022/04/26 07:39:30;;;;;;;0.40;0.20;;;10.80;99.90;;;;;;5010478;28;20419;-68
2022/04/26 07:41:56;;;;;;;0.40;0.20;;;10.80;99.90;;;;;;5010707;28;20534;-67
2022/04/26 07:44:22;;;;;;;0.40;0.30;;;10.90;99.90;;;;;;5008048;28;21108;-67
2022/04/26 07:46:50;;;;;;;0.40;0.20;;;10.90;99.90;;;;;;5009828;28;20523;-67
2022/04/26 07:49:17;;;;;;;0.40;0.20;;;10.90;99.90;;;;;;5027360;28;20875;-68
2022/04/26 07:51:43;;;;;;;0.40;0.20;;;10.80;99.90;;;;;;5013975;28;20428;-68
2022/04/26 07:54:12;;;;;;;0.40;0.20;;;10.80;99.90;;;;;;5010409;28;20483;-68
2022/04/26 07:56:38;;;;;;;0.40;0.30;;;10.80;99.90;;;;;;5009537;28;20551;-67
2022/04/26 07:59:04;;;;;;;0.40;0.20;;;10.60;99.90;;;;;;5009400;28;20381;-66
2022/04/26 08:01:31;;;;;;;4.20;1.10;;;10.70;99.90;;;;;;5003471;28;20880;-66
2022/04/26 08:04:01;;;;;;;0.40;0.20;;;10.50;99.90;;;;;;5009693;28;20412;-66
2022/04/26 08:06:27;;;;;;;0.60;0.60;;;10.50;99.90;;;;;;5008800;28;20436;-66
2022/04/26 08:08:58;;;;;;;0.40;0.20;;;10.60;99.90;;;;;;5004384;28;20462;-66
2022/04/26 08:11:28;;;;;;;0.60;0.60;;;10.60;99.90;;;;;;5003657;28;20406;-66
2022/04/26 08:13:54;;;;;;;0.40;0.30;;;10.80;99.90;;;;;;5007569;28;20396;-67
2022/04/26 08:16:19;;;;;;;0.40;0.20;;;10.90;99.90;;;;;;5003543;28;20397;-67
2022/04/26 08:18:45;;;;;;;0.40;0.20;;;10.90;99.90;;;;;;5007261;28;20453;-67
2022/04/26 08:21:14;;;;;;;0.40;0.20;;;10.90;99.90;;;;;;5003080;28;20391;-67
2022/04/26 08:29:09;;;;;;;0.40;0.20;;;11.00;99.90;;;;;;5008547;28;20384;-66
2022/04/26 08:31:37;;;;;;;0.40;0.20;;;11.10;99.90;;;;;;5015976;28;20393;-67
2022/04/26 08:34:03;;;;;;;0.40;0.20;;;11.10;99.90;;;;;;5013034;28;20400;-67
2022/04/26 08:36:29;;;;;;;0.40;0.20;;;11.30;99.90;;;;;;5010361;28;20884;-67
2022/04/26 08:38:54;;;;;;;0.40;0.20;;;11.30;99.90;;;;;;5005918;28;20412;-67
2022/04/26 08:41:22;;;;;;;0.40;0.20;;;11.40;99.90;;;;;;5004244;28;20447;-67
2022/04/26 08:43:47;;;;;;;0.40;0.20;;;11.50;99.90;;;;;;5007652;28;20421;-67
2022/04/26 08:46:13;;;;;;;0.40;0.20;;;11.60;99.90;;;;;;5010834;28;20397;-67
2022/04/26 08:51:28;;;;;;;0.40;0.20;;;11.70;99.90;;;;;;5014631;28;20417;-68
2022/04/26 08:53:54;;;;;;;0.40;0.20;;;11.60;99.90;;;;;;5022895;28;20494;-68
2022/04/26 08:56:20;;;;;;;0.40;0.20;;;11.80;99.90;;;;;;5032370;28;20380;-68
2022/04/26 08:58:46;;;;;;;0.40;0.20;;;11.90;99.90;;;;;;5012896;28;20372;-69
2022/04/26 09:01:22;;;;;;;0.40;0.20;;;12.20;99.90;;;;;;5013299;28;20392;-68
2022/04/26 09:03:54;;;;;;;0.40;0.20;;;12.40;99.90;;;;;;5015386;28;20435;-69
2022/04/26 09:06:21;;;;;;;0.68;0.68;;;12.80;99.90;;;;;;5002260;28;20497;-68
2022/04/26 09:08:48;;;;;;;0.40;0.30;;;12.80;99.90;;;;;;5009217;28;20393;-68
2022/04/26 09:11:26;;;;;;;0.40;0.20;;;12.80;99.90;;;;;;5012321;28;20408;-68
2022/04/26 09:13:52;;;;;;;0.40;0.20;;;13.10;99.90;;;;;;5009186;28;20399;-69
2022/04/26 09:16:21;;;;;;;0.63;0.63;;;13.20;99.90;;;;;;5006700;28;20404;-70
2022/04/26 09:18:51;;;;;;;0.40;0.30;;;12.90;99.90;;;;;;5003698;28;20951;-69
2022/04/26 09:21:17;;;;;;;0.40;0.20;;;12.90;99.90;;;;;;5007171;28;20404;-70
2022/04/26 09:23:43;;;;;;;0.40;0.20;;;12.90;99.90;;;;;;5012098;28;20404;-70
2022/04/26 09:26:14;;;;;;;0.40;0.20;;;13.00;99.90;;;;;;4997500;28;20400;-69
2022/04/26 09:28:43;;;;;;;0.40;0.20;;;13.00;99.90;;;;;;5005621;28;20412;-69
2022/04/26 09:31:28;;;;;;;0.40;0.20;;;12.90;99.90;;;;;;5006843;28;20387;-70
2022/04/26 09:34:04;;;;;;;0.40;0.30;;;12.60;99.90;;;;;;5011633;28;20413;-69
2022/04/26 09:36:42;;;;;;;0.40;0.20;;;12.60;99.90;;;;;;5030276;28;20471;-69
2022/04/26 09:39:09;;;;;;;0.40;0.20;;;12.50;99.90;;;;;;5025378;28;20420;-69
2022/04/26 09:41:35;;;;;;;0.40;0.20;;;12.60;99.90;;;;;;5004017;28;20496;-69
2022/04/26 09:44:09;;;;;;;0.40;0.20;;;12.80;99.90;;;;;;5002364;28;20402;-69
2022/04/26 09:46:40;;;;;;;0.40;0.30;;;13.10;99.90;;;;;;5009262;28;20421;-69
2022/04/26 09:49:10;;;;;;;0.40;0.20;;;13.20;99.90;;;;;;5010943;28;20905;-68
2022/04/26 09:51:40;;;;;;;0.40;0.20;;;13.20;99.90;;;;;;5007901;28;20451;-69
2022/04/26 09:54:06;;;;;;;0.40;0.20;;;13.30;99.90;;;;;;5020212;28;20382;-70
2022/04/26 09:56:33;;;;;;;0.40;0.20;;;13.60;99.90;;;;;;5027664;28;20393;-68
2022/04/26 09:59:03;;;;;;;0.40;0.20;;;14.00;99.90;;;;;;5007238;28;20390;-68
2022/04/26 10:01:40;;;;;;;0.40;0.40;;;13.60;99.90;;;;;;5016101;28;20840;-69
2022/04/26 10:04:08;;;;;;;0.40;0.20;;;14.00;99.90;;;;;;4998488;28;20401;-69
2022/04/26 10:06:37;;;;;;;0.40;0.20;;;14.10;99.90;;;;;;5011381;28;20764;-67
2022/04/26 10:09:07;;;;;;;0.60;0.60;;;14.30;99.90;;;;;;5006649;28;20482;-68
2022/04/26 10:11:33;;;;;;;0.40;0.20;;;13.90;99.90;;;;;;5030606;28;20481;-67
2022/04/26 10:14:02;;;;;;;1.80;0.70;;;13.70;99.90;;;;;;5014522;28;20404;-67
2022/04/26 10:16:29;;;;;;;0.60;0.60;;;13.50;99.90;;;;;;5012361;28;20391;-69
2022/04/26 10:19:07;;;;;;;0.70;0.70;;;13.40;99.90;;;;;;5000747;28;20393;-68
2022/04/26 10:21:38;;;;;;;0.40;0.20;;;13.10;99.90;;;;;;5029731;28;20426;-69
2022/04/26 10:24:21;;;;;;;0.40;0.30;;;12.90;99.90;;;;;;5015402;28;20397;-68
2022/04/26 10:26:48;;;;;;;0.40;0.20;;;12.60;99.90;;;;;;5000630;28;20424;-67
2022/04/26 10:29:17;;;;;;;0.40;0.20;;;12.20;99.90;;;;;;5007128;28;20409;-66
2022/04/26 10:31:52;;;;;;;0.50;0.50;;;11.80;99.90;;;;;;5010611;28;20905;-68
2022/04/26 10:34:28;;;;;;;0.90;0.90;;;11.50;99.90;;;;;;5021594;28;20399;-68
2022/04/26 10:37:01;;;;;;;0.40;0.20;;;11.20;99.90;;;;;;5015949;28;20424;-67
2022/04/26 10:39:35;;;;;;;0.40;0.20;;;10.90;99.90;;;;;;5016954;28;20419;-67
2022/04/26 10:42:26;;;;;;;0.40;0.20;;;10.80;99.90;;;;;;5010891;28;20412;-67
2022/04/26 10:44:57;;;;;;;0.40;0.20;;;10.70;99.90;;;;;;5018800;28;20397;-67
2022/04/26 10:47:24;;;;;;;0.40;0.20;;;10.80;99.90;;;;;;5004354;28;20446;-67
2022/04/26 10:49:52;;;;;;;0.50;0.50;;;10.70;99.90;;;;;;5020949;28;20389;-69
2022/04/26 10:52:33;;;;;;;0.40;0.30;;;10.60;99.90;;;;;;5016479;28;20413;-68
2022/04/26 10:55:07;;;;;;;0.40;0.20;;;10.50;99.90;;;;;;5015959;28;20415;-68
2022/04/26 10:57:44;;;;;;;0.40;0.20;;;10.20;99.90;;;;;;5017494;28;20429;-67
2022/04/26 11:00:11;;;;;;;0.40;0.20;;;10.20;99.90;;;;;;5007426;28;20889;-68
2022/04/26 11:02:42;;;;;;;1.00;1.00;;;10.30;99.90;;;;;;5006472;28;20405;-69
2022/04/26 11:05:15;;;;;;;0.40;0.20;;;10.50;99.90;;;;;;5015161;28;20401;-68
2022/04/26 11:07:43;;;;;;;0.40;0.20;;;10.60;99.90;;;;;;5013497;28;20436;-68
2022/04/26 11:10:14;;;;;;;0.40;0.20;;;10.90;99.90;;;;;;5026293;28;20500;-69
2022/04/26 11:12:40;;;;;;;0.60;0.60;;;11.40;99.90;;;;;;5017711;28;20774;-68
2022/04/26 11:15:10;;;;;;;0.40;0.20;;;12.00;99.90;;;;;;5017311;28;20402;-69
2022/04/26 11:17:40;;;;;;;0.40;0.20;;;12.80;99.90;;;;;;5011664;28;20491;-69
2022/04/26 11:20:12;;;;;;;0.40;0.40;;;13.10;99.90;;;;;;5012741;28;20888;-70
2022/04/26 11:22:58;;;;;;;0.40;0.20;;;13.40;99.90;;;;;;5019550;28;20413;-69
2022/04/26 11:28:14;;;;;;;0.40;0.20;;;13.70;99.90;;;;;;5013922;28;20435;-70
2022/04/26 11:30:45;;;;;;;0.40;0.40;;;14.40;99.90;;;;;;5019039;28;20393;-70
2022/04/26 11:33:20;;;;;;;0.40;0.30;;;15.20;99.90;;;;;;5033443;28;20754;-69
2022/04/26 11:36:06;;;;;;;0.40;0.22;;;16.20;97.70;;;;;;5012215;28;20447;-70
2022/04/26 11:38:32;;;;;;;0.40;0.22;;;16.10;95.90;;;;;;5012385;28;20891;-69
2022/04/26 11:41:02;;;;;;;0.40;0.40;;;15.70;93.90;;;;;;5014881;28;20482;-69
2022/04/26 11:43:37;;;;;;;0.60;0.60;;;16.00;93.40;;;;;;5016182;28;20397;-69
2022/04/26 11:46:04;;;;;;;0.40;0.30;;;16.10;92.10;;;;;;5016129;28;20402;-71
2022/04/26 11:48:33;;;;;;;0.40;0.20;;;15.70;96.20;;;;;;5022148;28;20418;-69
2022/04/26 11:51:00;;;;;;;0.40;0.20;;;16.60;96.00;;;;;;5020463;28;20409;-70
2022/04/26 11:53:31;;;;;;;0.40;0.20;;;16.90;95.40;;;;;;5012574;28;20890;-68
2022/04/26 11:56:00;;;;;;;0.40;0.20;;;17.40;96.60;;;;;;5023194;28;20893;-68
2022/04/26 11:58:40;;;;;;;0.40;0.20;;;17.80;91.40;;;;;;5022349;28;20490;-69
2022/04/26 12:01:16;;;;;;;0.50;0.40;;;18.00;92.10;;;;;;5020970;28;20426;-68
2022/04/26 12:03:52;;;;;;;0.40;0.20;;;18.00;92.50;;;;;;5027105;28;20403;-68
2022/04/26 12:06:18;;;;;;;0.40;0.20;;;17.70;92.80;;;;;;5017639;28;20418;-69
2022/04/26 12:08:50;;;;;;;0.40;0.30;;;17.80;93.60;;;;;;5020839;28;20389;-68
2022/04/26 12:11:21;;;;;;;0.40;0.30;;;18.10;89.90;;;;;;5036044;28;20408;-67
2022/04/26 12:14:00;;;;;;;0.40;0.20;;;18.80;81.30;;;;;;5017896;28;20420;-68
2022/04/26 12:16:27;;;;;;;0.40;0.20;;;18.70;85.40;;;;;;5022192;28;20803;-68
2022/04/26 12:18:57;;;;;;;1.67;0.90;;;18.20;81.60;;;;;;5019486;28;20430;-68
2022/04/26 12:21:28;;;;;;;0.40;0.28;;;17.70;79.40;;;;;;5018271;28;20403;-67
2022/04/26 12:24:13;;;;;;;0.40;0.22;;;17.90;79.20;;;;;;5010891;28;20871;-67
2022/04/26 12:27:01;;;;;;;0.40;0.30;;;17.60;77.30;;;;;;5020406;28;20417;-68
2022/04/26 12:29:37;;;;;;;2.10;0.60;;;16.30;81.00;;;;;;5020363;28;20410;-67
2022/04/26 12:32:08;;;;;;;0.40;0.20;;;15.50;84.70;;;;;;5018901;28;20727;-67
2022/04/26 12:34:34;;;;;;;0.40;0.20;;;15.30;87.20;;;;;;5018101;28;20403;-69
2022/04/26 12:37:15;;;;;;;0.40;0.40;;;14.90;87.10;;;;;;5012416;28;21090;-67
2022/04/26 12:39:41;;;;;;;0.40;0.20;;;15.00;90.50;;;;;;5012394;28;20408;-68
2022/04/26 12:42:08;;;;;;;0.40;0.20;;;14.60;90.60;;;;;;5012519;28;20722;-67
2022/04/26 12:44:35;;;;;;;0.40;0.30;;;15.20;93.90;;;;;;5030698;28;20387;-67
2022/04/26 12:52:58;;;;;;;0.50;0.50;;;15.10;94.90;;;;;;5005699;28;20742;-69
2022/04/26 12:55:44;;;;;;;0.47;0.38;;;15.60;90.00;;;;;;5002005;28;20840;-68
2022/04/26 12:58:12;;;;;;;0.40;0.30;;;16.10;90.80;;;;;;5021053;28;20383;-67
2022/04/26 13:00:47;;;;;;;0.40;0.30;;;16.00;82.50;;;;;;5026594;28;20412;-68
2022/04/26 13:03:17;;;;;;;0.40;0.40;;;15.50;80.30;;;;;;5010795;28;20416;-68
2022/04/26 13:05:46;;;;;;;0.40;0.30;;;15.70;82.70;;;;;;5009495;28;20409;-69
2022/04/26 13:08:14;;;;;;;0.40;0.20;;;15.10;83.50;;;;;;5006479;28;20488;-68
2022/04/26 13:10:41;;;;;;;0.40;0.20;;;14.80;89.10;;;;;;5002519;28;20452;-68
2022/04/26 13:13:08;;;;;;;0.40;0.40;;;14.60;91.20;;;;;;5005570;28;20429;-67
2022/04/26 13:15:35;;;;;;;0.40;0.30;;;14.80;92.10;;;;;;5002665;28;20385;-68
2022/04/26 13:18:01;;;;;;;0.40;0.20;;;15.10;92.20;;;;;;5012114;28;20401;-68
2022/04/26 13:20:28;;;;;;;0.40;0.20;;;15.30;89.10;;;;;;5011655;28;20766;-68
2022/04/26 13:22:54;;;;;;;0.50;0.50;;;15.20;88.00;;;;;;5018376;28;20399;-68
2022/04/26 13:25:25;;;;;;;0.40;0.30;;;15.80;86.80;;;;;;5020299;28;20496;-68
2022/04/26 13:27:52;;;;;;;0.40;0.20;;;16.20;82.90;;;;;;5005269;28;20467;-68
2022/04/26 13:30:17;;;;;;;0.40;0.20;;;16.60;81.50;;;;;;5010052;28;20404;-67
2022/04/26 13:32:44;;;;;;;0.40;0.30;;;16.30;83.60;;;;;;5015715;28;20835;-67
2022/04/26 13:35:10;;;;;;;0.40;0.28;;;15.80;84.10;;;;;;5017634;28;20393;-68
2022/04/26 13:37:36;;;;;;;0.40;0.20;;;15.20;84.40;;;;;;5033135;28;20453;-68
2022/04/26 13:40:03;;;;;;;0.40;0.30;;;15.80;85.70;;;;;;5013924;28;20421;-68
2022/04/26 13:42:30;;;;;;;0.40;0.20;;;16.10;86.10;;;;;;5005243;28;20818;-68
2022/04/26 13:44:58;;;;;;;0.40;0.20;;;16.40;84.70;;;;;;5012555;28;20393;-68
2022/04/26 13:47:24;;;;;;;0.40;0.20;;;16.20;80.80;;;;;;5011650;28;20503;-69
2022/04/26 13:49:53;;;;;;;0.40;0.20;;;16.00;80.00;;;;;;5011288;28;20846;-68
2022/04/26 13:52:22;;;;;;;0.40;0.40;;;15.60;80.00;;;;;;5026560;28;20411;-68
2022/04/26 13:54:49;;;;;;;0.80;0.70;;;16.40;77.40;;;;;;5003119;28;20775;-68
2022/04/26 13:57:15;;;;;;;0.40;0.40;;;16.80;78.00;;;;;;5002909;28;20442;-67
2022/04/26 13:59:42;;;;;;;0.40;0.20;;;17.60;76.00;;;;;;5009430;28;20597;-68
2022/04/26 14:02:11;;;;;;;1.40;1.30;;;17.70;81.70;;;;;;5012086;28;20413;-67
2022/04/26 14:04:37;;;;;;;0.40;0.20;;;17.30;74.70;;;;;;5005310;28;20769;-67
2022/04/26 14:07:04;;;;;;;0.40;0.20;;;16.40;77.60;;;;;;5002668;28;20428;-66
2022/04/26 14:09:30;;;;;;;0.40;0.32;;;16.60;73.40;;;;;;5000412;28;20410;-68
2022/04/26 14:11:56;;;;;;;0.40;0.20;;;16.80;76.30;;;;;;5009181;28;20396;-70
2022/04/26 14:22:45;;;;;;;0.40;0.30;;;17.70;73.30;;;;;;5013668;28;20423;-70
2022/04/26 14:25:13;;;;;;;0.47;0.45;;;18.20;69.80;;;;;;5000960;28;20869;-68
2022/04/26 14:27:42;;;;;;;0.50;0.50;;;18.10;71.50;;;;;;5009674;28;20428;-69
2022/04/26 14:30:10;;;;;;;0.40;0.30;;;18.10;68.50;;;;;;4993994;28;20438;-68
2022/04/26 14:32:35;;;;;;;0.45;0.45;;;17.60;71.40;;;;;;5002960;28;20498;-72
2022/04/26 14:35:02;;;;;;;0.40;0.20;;;17.40;72.70;;;;;;5003348;28;20484;-68
2022/04/26 14:37:33;;;;;;;0.40;0.20;;;17.80;69.80;;;;;;5009448;28;20421;-68
2022/04/26 14:39:58;;;;;;;0.40;0.30;;;18.00;70.90;;;;;;5009428;28;20487;-70
2022/04/26 14:42:24;;;;;;;0.40;0.20;;;17.50;69.40;;;;;;5010548;28;20852;-69
2022/04/26 14:44:50;;;;;;;0.40;0.30;;;16.30;73.90;;;;;;5017899;28;20598;-68
2022/04/26 14:47:16;;;;;;;0.40;0.20;;;16.80;71.40;;;;;;5005679;28;20417;-69
2022/04/26 14:49:42;;;;;;;0.40;0.30;;;16.60;71.40;;;;;;4998964;28;20417;-68
2022/04/26 14:52:08;;;;;;;0.40;0.30;;;16.50;69.90;;;;;;4998984;28;20917;-69
2022/04/26 14:54:34;;;;;;;0.50;0.50;;;17.00;69.50;;;;;;4998645;28;20559;-69
2022/04/26 14:57:01;;;;;;;0.70;0.70;;;16.70;68.40;;;;;;4990934;28;20465;-69
2022/04/26 14:59:26;;;;;;;0.40;0.20;;;14.90;90.40;;;;;;5008942;28;20449;-69
2022/04/26 15:01:53;;;;;;;0.40;0.30;;;14.40;95.70;;;;;;5005816;28;20417;-71
2022/04/26 15:04:21;;;;;;;0.40;0.20;;;13.80;99.80;;;;;;5018250;28;20396;-70
2022/04/26 15:06:47;;;;;;;0.60;0.60;;;13.80;99.90;;;;;;5009457;28;20432;-70
2022/04/26 15:17:28;;;;;;;0.40;0.20;;;13.50;99.90;;;;;;5008412;28;20458;-69
2022/04/26 15:19:53;;;;;;;0.40;0.30;;;13.40;99.90;;;;;;5004961;28;20404;-68
2022/04/26 15:22:19;;;;;;;0.40;0.20;;;13.40;99.90;;;;;;5001469;28;20393;-68
2022/04/26 15:24:50;;;;;;;0.40;0.20;;;13.30;99.90;;;;;;5001608;28;20404;-68
2022/04/26 15:27:18;;;;;;;0.40;0.20;;;13.50;99.90;;;;;;5007769;28;20903;-70
2022/04/26 15:29:44;;;;;;;0.50;0.50;;;13.90;99.90;;;;;;4996848;28;20772;-68
2022/04/26 15:32:10;;;;;;;1.10;0.80;;;14.10;99.90;;;;;;5005894;28;20470;-69
2022/04/26 15:34:37;;;;;;;0.40;0.30;;;13.80;99.90;;;;;;5006091;28;20498;-68
2022/04/26 15:37:04;;;;;;;0.40;0.30;;;14.20;99.90;;;;;;5010794;28;20416;-68
2022/04/26 15:39:29;;;;;;;0.50;0.50;;;14.40;99.90;;;;;;5009262;28;20441;-69
2022/04/26 15:41:56;;;;;;;0.40;0.30;;;14.70;98.70;;;;;;5011134;28;20421;-68
2022/04/26 15:44:23;;;;;;;0.40;0.20;;;14.80;98.40;;;;;;5005528;28;20393;-68
2022/04/26 15:46:52;;;;;;;0.40;0.20;;;15.20;97.80;;;;;;5001483;28;20468;-70
2022/04/26 15:49:22;;;;;;;1.30;0.90;;;15.60;96.20;;;;;;5003368;28;20436;-71
2022/04/26 15:51:48;;;;;;;0.50;0.50;;;16.10;89.60;;;;;;5010214;28;20396;-69
2022/04/26 15:54:17;;;;;;;0.40;0.30;;;15.00;92.80;;;;;;5005488;28;20401;-68
2022/04/26 15:56:46;;;;;;;0.40;0.22;;;15.90;91.60;;;;;;5006747;28;20382;-68
2022/04/26 15:59:12;;;;;;;0.40;0.20;;;17.30;85.40;;;;;;5000124;28;20393;-68
2022/04/26 16:01:42;;;;;;;0.40;0.30;;;15.80;90.30;;;;;;5010110;28;20519;-69
2022/04/26 16:04:09;;;;;;;0.40;0.20;;;14.40;94.90;;;;;;5010781;28;20443;-69
2022/04/26 16:06:39;;;;;;;0.90;0.70;;;14.10;98.30;;;;;;5009191;28;20411;-68
2022/04/26 16:22:49;;;;;;;0.75;0.75;;;13.50;99.90;;;;;;5007606;28;20498;-69
2022/04/26 16:25:15;;;;;;;0.40;0.40;;;13.60;99.90;;;;;;5006940;28;20537;-68
2022/04/26 16:27:42;;;;;;;0.70;0.60;;;13.40;99.90;;;;;;5009178;28;20434;-68
2022/04/26 16:30:11;;;;;;;0.40;0.20;;;13.40;99.90;;;;;;5011965;28;20413;-69
2022/04/26 16:32:38;;;;;;;0.40;0.22;;;13.40;99.90;;;;;;5014937;28;20420;-70
2022/04/26 16:35:08;;;;;;;0.40;0.20;;;13.40;99.90;;;;;;5010819;28;20393;-68
2022/04/26 16:37:34;;;;;;;1.30;0.90;;;13.30;99.90;;;;;;5006927;28;20418;-68
2022/04/26 16:40:01;;;;;;;0.40;0.20;;;13.30;99.90;;;;;;5001711;28;20427;-68
2022/04/26 16:42:26;;;;;;;0.40;0.20;;;13.30;99.90;;;;;;5005072;28;20857;-68
2022/04/26 16:44:52;;;;;;;0.40;0.40;;;13.20;99.90;;;;;;5007162;28;20489;-69
2022/04/26 16:47:18;;;;;;;0.40;0.20;;;13.10;99.90;;;;;;5007639;28;20470;-69
2022/04/26 16:49:43;;;;;;;0.40;0.30;;;13.10;99.90;;;;;;5003194;28;20418;-71
2022/04/26 16:52:09;;;;;;;0.40;0.30;;;13.00;99.90;;;;;;5000289;28;20399;-68
2022/04/26 16:54:35;;;;;;;0.40;0.30;;;13.00;99.90;;;;;;5004781;28;20397;-69
2022/04/26 16:57:01;;;;;;;0.40;0.20;;;13.00;99.90;;;;;;4998178;28;20387;-69
2022/04/26 16:59:29;;;;;;;0.70;0.50;;;12.90;99.90;;;;;;5005282;28;20824;-69
2022/04/26 17:01:58;;;;;;;0.40;0.40;;;12.80;99.90;;;;;;5008620;28;20409;-69
2022/04/26 17:04:24;;;;;;;0.40;0.20;;;12.80;99.90;;;;;;5012684;28;20393;-69
2022/04/26 17:06:50;;;;;;;0.40;0.20;;;12.80;99.90;;;;;;5012810;28;20436;-70
2022/04/26 17:09:20;;;;;;;0.40;0.20;;;12.80;99.90;;;;;;5013049;28;20408;-69
2022/04/26 17:11:49;;;;;;;0.40;0.40;;;12.70;99.90;;;;;;5011707;28;20433;-68
2022/04/26 17:14:17;;;;;;;0.40;0.20;;;12.80;99.90;;;;;;5002182;28;20410;-68
2022/04/26 17:16:46;;;;;;;0.80;0.80;;;12.80;99.90;;;;;;5009727;28;20408;-68
2022/04/26 17:19:13;;;;;;;0.40;0.20;;;12.90;99.90;;;;;;5013314;28;21163;-68
2022/04/26 17:21:39;;;;;;;0.50;0.50;;;12.80;99.90;;;;;;5006367;28;20400;-67